Nearby METAR Reports

 

KBJC - Broomfield/Jeffc, Colorado, USA
Distance from station: SSW 3mi, 5km
Updated: Thu, 22-Feb-2018 6:45pm MST
Light snow, Overcast
Light snow, Overcast
 Wind from calm
Wind: Calm
Temperature: 21°F , -6°C
Dew Point: 19°F , -7°C
Humidity: 93%
Barometer: 30.00 inHg , 1015.9 hPa
Summary: Light Snow
Clouds: Overcast
Visibility: 1 mile , 2 km
Cloud details: Overcast 600 ft
2018/02/23 01:45 KBJC 230145Z 00000KT 1SM -SN OVC006 M06/M07 A3000
KEIK - Erie Muni, Colorado, USA
Distance from station: N 5mi, 9km
Updated: Thu, 22-Feb-2018 7:36pm MST
Light snow, Overcast
Light snow, Overcast
 Wind from WNW
Wind: WNW 5 mph , 7 km/h
Temperature: 23°F , -5°C
Wind Chill: 17°F , -8°C
Dew Point: 21°F , -6°C
Humidity: 93%
Barometer: 30.08 inHg , 1018.6 hPa
Summary: Light Snow
Clouds: Overcast
Visibility: 2 miles , 3 km
Cloud details: Overcast 1000 ft
2018/02/23 02:36 KEIK 230236Z AUTO 29004KT 2SM -SN OVC010 M05/M06 A3008 RMK AO2 T10481065
 
KBDU - Boulder Muni, Colorado, USA
Distance from station: NW 11mi, 17km
Updated: Thu, 22-Feb-2018 7:36pm MST
Overcast
Overcast
 Wind from calm
Wind: Calm
Temperature: 23°F , -5°C
Dew Point: 18°F , -8°C
Humidity: 80%
Barometer: 30.02 inHg , 1016.6 hPa
Clouds: Overcast
Visibility: 10 miles , 16 km
Cloud details: Mostly cloudy 4300 ft
Mostly cloudy 5500 ft
Overcast 9500 ft
2018/02/23 02:36 KBDU 230236Z AUTO 00000KT 10SM BKN043 BKN055 OVC095 M05/M08 A3002 RMK AO2
KLMO - Longmont/Vbrand, Colorado, USA
Distance from station: NNW 16mi, 27km
Updated: Thu, 22-Feb-2018 7:35pm MST
Partly cloudy
Partly cloudy
 Wind from NW
Wind: NW 3 mph , 6 km/h
Temperature: 21°F , -6°C
Dew Point: 14°F , -10°C
Humidity: 74%
Barometer: 30.05 inHg , 1017.6 hPa
Clouds: Partly cloudy
Visibility: 10 miles , 16 km
Cloud details: Partly cloudy 10000 ft
2018/02/23 02:35 KLMO 230235Z AUTO 32003KT 10SM SCT100 M06/M10 A3005 RMK AO2 T10631101
 
KBKF - Buckley Angb/Den, Colorado, USA
Distance from station: SE 23mi, 37km
Updated: Thu, 22-Feb-2018 7:28pm MST
Light snow, Mostly cloudy
Light snow, Mostly cloudy
 Wind from WNW
Wind: WNW 3 mph , 6 km/h
Temperature: 19°F , -7°C
Dew Point: 19°F , -7°C
Humidity: 100%
Barometer: 30.00 inHg , 1015.9 hPa
Summary: Light Snow
Clouds: Mostly cloudy
Visibility: 8 miles , 13 km
Cloud details: Few Clouds 700 ft
Mostly cloudy 1600 ft
Mostly cloudy 3000 ft
2018/02/23 02:28 KBKF 230228Z 30003KT 8SM -SN FEW007 BKN016 BKN030 M07/M07 A3000 RMK AO2A
KDEN - Denver (dia), Colorado, USA
Distance from station: ESE 23mi, 37km
Updated: Thu, 22-Feb-2018 6:53pm MST
Light snow, Mist, Overcast
Light snow, Mist, Overcast
 Wind from WNW
Wind: WNW 9 mph , 15 km/h
Temperature: 21°F , -6°C
Wind Chill: 11°F , -12°C
Dew Point: 18°F , -8°C
Humidity: 86%
Barometer: 30.00 inHg , 1015.9 hPa
Summary: Light snow, Mist
Clouds: Overcast
Visibility: 1 1/2 miles , 2 km
Cloud details: Few Clouds 700 ft
Mostly cloudy 5500 ft
Overcast 7000 ft
2018/02/23 01:53 KDEN 230153Z 29008KT 1 1/2SM -SN BR FEW007 BKN055 OVC070 M06/M08 A3000 RMK AO2 SFC VIS 2 1/2 SLP206 P0000 T10611083
 
KAPA - Denver/Arapahoe, Colorado, USA
Distance from station: SSE 28mi, 46km
Updated: Thu, 22-Feb-2018 7:03pm MST
Light snow, Mist, Mostly cloudy
Light snow, Mist, Mostly cloudy
 Wind from NW
Wind: NW 3 mph , 6 km/h
Temperature: 19°F , -7°C
Dew Point: 19°F , -7°C
Humidity: 100%
Barometer: 29.98 inHg , 1015.2 hPa
Summary: Light snow, Mist
Clouds: Mostly cloudy
Visibility: 3 miles , 5 km
Cloud details: Few Clouds 1000 ft
Partly cloudy 2200 ft
Mostly cloudy 3800 ft
2018/02/23 02:03 KAPA 230203Z 32003KT 3SM -SN BR FEW010 SCT022 BKN038 M07/M07 A2998 RMK AO2 TWR VIS 4 P0000 T10671072
KFTG - Denver F. Range, Colorado, USA
Distance from station: ESE 30mi, 48km
Updated: Thu, 22-Feb-2018 6:53pm MST
Light snow, Overcast
Light snow, Overcast
 Wind from WNW
Wind: WNW 7 mph , 11 km/h
Temperature: 23°F , -5°C
Wind Chill: 15°F , -9°C
Dew Point: 19°F , -7°C
Humidity: 86%
Barometer: 30.01 inHg , 1016.3 hPa
Summary: Light Snow
Clouds: Overcast
Visibility: 2 miles , 3 km
Cloud details: Partly cloudy 700 ft
Partly cloudy 3000 ft
Overcast 3600 ft
2018/02/23 01:53 KFTG 230153Z 29006KT 2SM -SN SCT007 SCT030 OVC036 M05/M07 A3001
 
KFNL - Ft Collins/Lovel, Colorado, USA
Distance from station: N 35mi, 57km
Updated: Thu, 22-Feb-2018 6:56pm MST
Mostly cloudy
Mostly cloudy
 Wind from calm
Wind: Calm
Temperature: 21°F , -6°C
Dew Point: 16°F , -9°C
Humidity: 80%
Barometer: 30.03 inHg , 1016.9 hPa
Clouds: Mostly cloudy
Visibility: 10 miles , 16 km
Cloud details: Mostly cloudy 11000 ft
2018/02/23 01:56 KFNL 230156Z AUTO 00000KT 10SM BKN110 M06/M09 A3003 RMK AO2 SLP226 T10611094 FZRANO
K0CO - Berthoud Pass, Colorado, USA
Distance from station: WSW 38mi, 61km
Updated: Thu, 22-Feb-2018 7:30pm MST
Clear
Clear
 Wind from W
Wind: W 17 mph , 28 km/h
Temperature: 1°F , -17°C
Wind Chill: -19°F , -28°C
Dew Point: -9°F , -23°C
Humidity: 60%
Barometer: 29.81 inHg , 1009.5 hPa
Clouds: Clear
Visibility: 10 miles , 16 km
2018/02/23 02:30 K0CO 230230Z AUTO 28015KT 10SM CLR M17/M23 A2981 RMK AO2
 
KGXY - Greeley/Weld, Colorado, USA
Distance from station: NE 41mi, 66km
Updated: Thu, 22-Feb-2018 6:56pm MST
Few Clouds
Few Clouds
 Wind from NW
Wind: NW 5 mph , 7 km/h
Temperature: 18°F , -8°C
Wind Chill: 11°F , -12°C
Dew Point: 14°F , -10°C
Humidity: 86%
Barometer: 30.04 inHg , 1017.3 hPa
Clouds: Few Clouds
Visibility: 10 miles , 16 km
Cloud details: Few Clouds 8500 ft
2018/02/23 01:56 KGXY 230156Z AUTO 31004KT 10SM FEW085 M08/M10 A3004 RMK AO2 SLP250 T10781100 FZRANO